createdAt,value
2016-06-19T00:00:59.062Z,15.6
2016-06-19T00:01:59.081Z,15.57
2016-06-19T00:02:59.100Z,15.56
2016-06-19T00:03:59.166Z,15.54
2016-06-19T00:04:59.263Z,15.6
2016-06-19T00:05:59.220Z,15.6
2016-06-19T00:06:59.270Z,15.57
2016-06-19T00:07:59.352Z,15.67
2016-06-19T00:08:59.355Z,15.59
2016-06-19T00:09:59.391Z,15.63
2016-06-19T00:10:59.440Z,15.6
2016-06-19T00:11:59.506Z,15.49
2016-06-19T00:12:59.510Z,15.6
2016-06-19T00:13:59.560Z,15.56
2016-06-19T00:14:59.627Z,15.51
2016-06-19T00:15:59.661Z,15.42
2016-06-19T00:16:59.711Z,15.41
2016-06-19T00:17:59.730Z,15.36
2016-06-19T00:18:59.765Z,15.41
2016-06-19T00:19:59.831Z,15.39
2016-06-19T00:20:59.851Z,15.3
2016-06-19T00:21:59.916Z,15.35
2016-06-19T00:22:59.966Z,15.42
2016-06-19T00:23:59.985Z,15.35
2016-06-19T00:25:00.020Z,15.38
2016-06-19T00:26:00.055Z,15.33
2016-06-19T00:27:00.105Z,15.41
2016-06-19T00:28:00.156Z,15.35
2016-06-19T00:29:00.174Z,15.39
2016-06-19T00:30:00.209Z,15.39
2016-06-19T00:31:00.275Z,15.41
2016-06-19T00:32:00.294Z,15.38
2016-06-19T00:33:00.345Z,15.39
2016-06-19T00:34:00.410Z,15.31
2016-06-19T00:35:00.414Z,15.36
2016-06-19T00:36:00.480Z,15.35
2016-06-19T00:37:00.499Z,15.33
2016-06-19T00:38:00.549Z,15.27
2016-06-19T00:39:00.615Z,15.3
2016-06-19T00:40:00.619Z,15.28
2016-06-19T00:41:00.669Z,15.27
2016-06-19T00:42:00.751Z,15.23
2016-06-19T00:43:00.755Z,15.21
2016-06-19T00:44:01.008Z,15.24
2016-06-19T00:45:00.840Z,15.27
2016-06-19T00:46:00.905Z,15.23
2016-06-19T00:47:00.908Z,15.2
2016-06-19T00:48:00.943Z,15.2
2016-06-19T00:49:01.025Z,15.17
2016-06-19T00:50:01.029Z,15.05
2016-06-19T00:51:01.063Z,15.02
2016-06-19T00:52:01.114Z,15.19
2016-06-19T00:53:01.148Z,15.09
2016-06-19T00:54:01.214Z,15.09
2016-06-19T00:55:01.232Z,15.11
2016-06-19T00:56:01.283Z,15.08
2016-06-19T00:57:01.318Z,15.06
2016-06-19T00:58:01.353Z,15.08
2016-06-19T00:59:01.404Z,15.01
2016-06-19T01:00:01.438Z,14.99
2016-06-19T01:01:01.473Z,15.12
2016-06-19T01:02:01.523Z,15.02
2016-06-19T01:03:01.558Z,15.11
2016-06-19T01:04:01.608Z,15.09
2016-06-19T01:05:01.642Z,15.05
2016-06-19T01:06:01.709Z,15.06
2016-06-19T01:07:01.727Z,15.09
2016-06-19T01:08:01.793Z,15.12
2016-06-19T01:09:02.469Z,15.08
2016-06-19T01:10:01.847Z,15.12
2016-06-19T01:11:01.913Z,15.08
2016-06-19T01:12:01.995Z,15.08
2016-06-19T01:13:01.983Z,15.06
2016-06-19T01:14:02.002Z,15.09
2016-06-19T01:15:02.052Z,14.95
2016-06-19T01:16:02.088Z,14.93
2016-06-19T01:17:02.325Z,14.91
2016-06-19T01:18:02.173Z,14.86
2016-06-19T01:19:02.238Z,14.9
2016-06-19T01:20:02.241Z,14.87
2016-06-19T01:21:02.292Z,14.83
2016-06-19T01:22:02.326Z,14.78
2016-06-19T01:23:02.392Z,14.71
2016-06-19T01:24:02.411Z,14.75
2016-06-19T01:25:03.103Z,14.72
2016-06-19T01:26:02.512Z,14.69
2016-06-19T01:27:02.563Z,14.67
2016-06-19T01:28:02.582Z,14.67
2016-06-19T01:29:02.616Z,14.64
2016-06-19T01:30:02.682Z,14.75
2016-06-19T01:31:02.686Z,14.78
2016-06-19T01:32:02.752Z,14.8
2016-06-19T01:33:02.849Z,14.71
2016-06-19T01:34:02.821Z,14.72
2016-06-19T01:35:02.856Z,14.72
2016-06-19T01:36:02.907Z,14.72
2016-06-19T01:37:02.956Z,14.72
2016-06-19T01:38:03.022Z,14.75
2016-06-19T01:39:03.010Z,14.74
2016-06-19T01:40:03.061Z,14.75
2016-06-19T01:41:03.095Z,14.74
2016-06-19T01:42:03.130Z,14.72
2016-06-19T01:43:03.181Z,14.72
2016-06-19T01:44:03.230Z,14.71
2016-06-19T01:45:03.266Z,14.71
2016-06-19T01:46:03.316Z,14.83
2016-06-19T01:47:03.334Z,14.72
2016-06-19T01:48:03.369Z,14.78
2016-06-19T01:49:03.467Z,14.71
2016-06-19T01:50:03.470Z,14.74
2016-06-19T01:51:03.504Z,14.74
2016-06-19T01:52:03.587Z,14.69
2016-06-19T01:53:03.591Z,14.81
2016-06-19T01:54:03.625Z,14.65
2016-06-19T01:55:03.663Z,14.72
2016-06-19T01:56:03.702Z,14.65
2016-06-19T01:57:03.756Z,14.69
2016-06-19T01:58:03.810Z,14.65
2016-06-19T01:59:03.847Z,14.67
2016-06-19T02:00:03.930Z,14.62
2016-06-19T02:01:03.935Z,14.62
2016-06-19T02:02:03.971Z,14.62
2016-06-19T02:03:04.055Z,14.62
2016-06-19T02:04:04.059Z,14.61
2016-06-19T02:05:04.110Z,14.65
2016-06-19T02:06:04.176Z,14.65
2016-06-19T02:07:04.180Z,14.62
2016-06-19T02:08:04.872Z,14.56
2016-06-19T02:09:04.266Z,14.61
2016-06-19T02:10:04.285Z,14.6
2016-06-19T02:11:04.336Z,14.49
2016-06-19T02:12:04.386Z,14.47
2016-06-19T02:13:04.420Z,14.53
2016-06-19T02:14:04.471Z,14.56
2016-06-19T02:15:04.506Z,14.49
2016-06-19T02:16:04.524Z,14.46
2016-06-19T02:17:04.590Z,14.54
2016-06-19T02:18:04.657Z,14.52
2016-06-19T02:19:04.661Z,14.5
2016-06-19T02:20:04.710Z,14.53
2016-06-19T02:21:04.760Z,14.57
2016-06-19T02:22:04.780Z,14.49
2016-06-19T02:23:04.814Z,14.5
2016-06-19T02:24:04.880Z,14.52
2016-06-19T02:25:04.931Z,14.5
2016-06-19T02:26:04.966Z,14.53
2016-06-19T02:27:04.985Z,14.54
2016-06-19T02:28:05.675Z,14.54
2016-06-19T02:29:05.101Z,14.49
2016-06-19T02:30:05.120Z,14.56
2016-06-19T02:31:05.155Z,14.49
2016-06-19T02:32:05.173Z,14.49
2016-06-19T02:33:05.256Z,14.54
2016-06-19T02:34:05.259Z,14.49
2016-06-19T02:35:05.309Z,14.5
2016-06-19T02:36:05.406Z,14.47
2016-06-19T02:37:05.425Z,14.34
2016-06-19T02:38:05.444Z,14.53
2016-06-19T02:39:05.479Z,14.53
2016-06-19T02:40:05.544Z,14.47
2016-06-19T02:41:05.548Z,14.54
2016-06-19T02:42:05.583Z,14.47
2016-06-19T02:43:05.618Z,14.5
2016-06-19T02:44:05.715Z,14.54
2016-06-19T02:45:05.718Z,14.5
2016-06-19T02:46:05.737Z,14.47
2016-06-19T02:47:05.819Z,14.46
2016-06-19T02:48:05.839Z,14.54
2016-06-19T02:49:05.888Z,14.5
2016-06-19T02:50:05.907Z,14.54
2016-06-19T02:51:05.958Z,14.52
2016-06-19T02:52:06.243Z,14.49
2016-06-19T02:53:06.027Z,14.52
2016-06-19T02:54:06.078Z,14.52
2016-06-19T02:55:06.113Z,14.57
2016-06-19T02:56:06.803Z,14.53
2016-06-19T02:57:06.197Z,14.47
2016-06-19T02:58:06.248Z,14.54
2016-06-19T02:59:06.299Z,14.6
2016-06-19T03:00:06.364Z,14.62
2016-06-19T03:01:06.352Z,14.54
2016-06-19T03:02:06.402Z,14.52
2016-06-19T03:03:06.421Z,14.61
2016-06-19T03:04:06.519Z,14.62
2016-06-19T03:05:06.506Z,14.62
2016-06-19T03:06:06.557Z,14.6
2016-06-19T03:07:06.669Z,14.68
2016-06-19T03:08:06.673Z,14.68
2016-06-19T03:09:06.676Z,14.68
2016-06-19T03:10:06.726Z,14.65
2016-06-19T03:11:06.777Z,14.67
2016-06-19T03:12:06.796Z,14.65
2016-06-19T03:13:06.831Z,14.67
2016-06-19T03:14:06.898Z,14.71
2016-06-19T03:15:06.947Z,14.68
2016-06-19T03:16:06.982Z,14.68
2016-06-19T03:17:07.017Z,14.74
2016-06-19T03:18:07.052Z,14.71
2016-06-19T03:19:07.085Z,14.72
2016-06-19T03:20:07.136Z,14.81
2016-06-19T03:21:07.172Z,14.81
2016-06-19T03:22:07.206Z,14.8
2016-06-19T03:23:07.224Z,14.8
2016-06-19T03:24:07.275Z,14.87
2016-06-19T03:25:07.326Z,14.86
2016-06-19T03:26:07.376Z,14.9
2016-06-19T03:27:07.426Z,14.87
2016-06-19T03:28:07.446Z,14.93
2016-06-19T03:29:07.511Z,14.88
2016-06-19T03:30:07.531Z,14.87
2016-06-19T03:31:07.596Z,14.98
2016-06-19T03:32:07.615Z,14.84
2016-06-19T03:33:07.634Z,14.94
2016-06-19T03:34:07.717Z,14.95
2016-06-19T03:35:07.735Z,14.94
2016-06-19T03:36:07.769Z,14.93
2016-06-19T03:37:07.820Z,14.98
2016-06-19T03:38:07.855Z,15.05
2016-06-19T03:39:07.890Z,15.03
2016-06-19T03:40:07.940Z,15.03
2016-06-19T03:41:07.991Z,15.05
2016-06-19T03:42:08.025Z,15.03
2016-06-19T03:43:08.091Z,15.06
2016-06-19T03:44:08.751Z,15.06
2016-06-19T03:45:08.144Z,15.17
2016-06-19T03:46:08.179Z,15.09
2016-06-19T03:47:08.246Z,15.12
2016-06-19T03:48:08.264Z,15.17
2016-06-19T03:49:08.300Z,15.19
2016-06-19T03:50:08.350Z,15.19
2016-06-19T03:51:08.415Z,15.19
2016-06-19T03:52:08.434Z,15.23
2016-06-19T03:53:08.454Z,15.17
2016-06-19T03:54:08.520Z,15.28
2016-06-19T03:55:08.539Z,15.23
2016-06-19T03:56:08.574Z,15.26
2016-06-19T03:57:08.624Z,15.26
2016-06-19T03:58:08.690Z,15.3
2016-06-19T03:59:08.756Z,15.26
2016-06-19T04:00:08.760Z,15.28
2016-06-19T04:01:08.794Z,15.24
2016-06-19T04:02:08.844Z,15.38
2016-06-19T04:03:08.895Z,15.38
2016-06-19T04:04:08.913Z,15.36
2016-06-19T04:05:08.949Z,15.35
2016-06-19T04:06:09.639Z,15.41
2016-06-19T04:07:09.034Z,15.38
2016-06-19T04:08:09.068Z,15.48
2016-06-19T04:09:09.119Z,15.51
2016-06-19T04:10:09.153Z,15.46
2016-06-19T04:11:09.204Z,15.43
2016-06-19T04:12:09.240Z,15.52
2016-06-19T04:13:09.277Z,15.52
2016-06-19T04:14:09.360Z,15.56
2016-06-19T04:15:10.036Z,15.46
2016-06-19T04:16:09.401Z,15.51
2016-06-19T04:17:09.452Z,15.51
2016-06-19T04:18:09.535Z,15.46
2016-06-19T04:19:09.538Z,15.48
2016-06-19T04:20:09.574Z,15.6
2016-06-19T04:21:09.625Z,15.6
2016-06-19T04:22:09.675Z,15.61
2016-06-19T04:23:09.756Z,15.61
2016-06-19T04:24:09.744Z,15.61
2016-06-19T04:25:09.780Z,15.72
2016-06-19T04:26:09.845Z,15.7
2016-06-19T04:27:09.895Z,15.67
2016-06-19T04:28:09.899Z,15.68
2016-06-19T04:29:09.949Z,15.7
2016-06-19T04:30:10.000Z,15.7
2016-06-19T04:31:10.065Z,15.76
2016-06-19T04:32:10.068Z,15.81
2016-06-19T04:33:10.103Z,15.84
2016-06-19T04:34:10.154Z,15.85
2016-06-19T04:35:10.220Z,15.85
2016-06-19T04:36:10.223Z,15.94
2016-06-19T04:37:10.258Z,15.97
2016-06-19T04:38:10.356Z,15.99
2016-06-19T04:39:10.373Z,16.01
2016-06-19T04:40:11.049Z,16
2016-06-19T04:41:10.444Z,16.01
2016-06-19T04:42:10.478Z,16.04
2016-06-19T04:43:10.560Z,16.06
2016-06-19T04:44:10.564Z,16.04
2016-06-19T04:45:10.598Z,16.15
2016-06-19T04:46:10.664Z,16.12
2016-06-19T04:47:10.684Z,16.26
2016-06-19T04:48:10.718Z,16.16
2016-06-19T04:49:11.408Z,16.18
2016-06-19T04:50:10.834Z,16.27
2016-06-19T04:51:10.853Z,16.31
2016-06-19T04:52:10.888Z,16.31
2016-06-19T04:53:10.938Z,16.34
2016-06-19T04:54:10.988Z,16.41
2016-06-19T04:55:11.023Z,16.38
2016-06-19T04:56:11.058Z,16.49
2016-06-19T04:57:11.093Z,16.52
2016-06-19T04:58:11.158Z,16.49
2016-06-19T04:59:11.178Z,16.5
2016-06-19T05:00:11.243Z,16.55
2016-06-19T05:01:11.310Z,16.67
2016-06-19T05:02:11.298Z,16.53
2016-06-19T05:03:12.004Z,16.58
2016-06-19T05:04:11.414Z,16.58
2016-06-19T05:05:11.464Z,16.58
2016-06-19T05:06:11.467Z,16.59
2016-06-19T05:07:11.503Z,16.6
2016-06-19T05:08:11.599Z,16.62
2016-06-19T05:09:11.587Z,16.59
2016-06-19T05:10:11.638Z,16.68
2016-06-19T05:11:11.673Z,16.6
2016-06-19T05:12:11.754Z,16.59
2016-06-19T05:13:11.757Z,16.56
2016-06-19T05:14:11.808Z,16.58
2016-06-19T05:15:11.842Z,16.6
2016-06-19T05:16:11.877Z,16.62
2016-06-19T05:17:11.927Z,16.59
2016-06-19T05:18:11.978Z,16.59
2016-06-19T05:19:12.669Z,16.62
2016-06-19T05:20:12.062Z,16.59
2016-06-19T05:21:12.098Z,16.6
2016-06-19T05:22:12.133Z,16.55
2016-06-19T05:23:12.167Z,16.6
2016-06-19T05:24:12.202Z,16.59
2016-06-19T05:25:12.252Z,16.53
2016-06-19T05:26:12.286Z,16.56
2016-06-19T05:27:12.353Z,16.52
2016-06-19T05:28:13.059Z,16.5
2016-06-19T05:29:12.422Z,16.5
2016-06-19T05:30:12.457Z,16.58
2016-06-19T05:31:12.491Z,16.5
2016-06-19T05:32:12.543Z,16.48
2016-06-19T05:33:12.576Z,16.53
2016-06-19T05:34:12.627Z,16.55
2016-06-19T05:35:12.725Z,16.58
2016-06-19T05:36:12.696Z,16.62
2016-06-19T05:37:12.747Z,16.63
2016-06-19T05:38:12.827Z,16.58
2016-06-19T05:39:12.863Z,16.6
2016-06-19T05:40:12.867Z,16.65
2016-06-19T05:41:12.918Z,16.7
2016-06-19T05:42:12.982Z,16.65
2016-06-19T05:43:12.987Z,16.73
2016-06-19T05:44:13.052Z,16.7
2016-06-19T05:45:13.118Z,16.68
2016-06-19T05:46:13.152Z,16.7
2016-06-19T05:47:13.156Z,16.71
2016-06-19T05:48:13.223Z,16.73
2016-06-19T05:49:13.928Z,16.74
2016-06-19T05:50:13.291Z,16.74
2016-06-19T05:51:13.327Z,16.71
2016-06-19T05:52:13.362Z,16.74
2016-06-19T05:53:13.442Z,16.8
2016-06-19T05:54:13.447Z,16.71
2016-06-19T05:55:13.496Z,16.74
2016-06-19T05:56:13.562Z,16.75
2016-06-19T05:57:13.566Z,16.68
2016-06-19T05:58:13.616Z,16.8
2016-06-19T05:59:13.651Z,16.8
2016-06-19T06:00:13.700Z,16.83
2016-06-19T06:01:13.736Z,16.86
2016-06-19T06:02:13.786Z,16.86
2016-06-19T06:03:13.821Z,16.86
2016-06-19T06:04:13.871Z,16.92
2016-06-19T06:05:13.906Z,16.96
2016-06-19T06:06:13.940Z,16.96
2016-06-19T06:07:14.007Z,16.95
2016-06-19T06:08:14.026Z,17
2016-06-19T06:09:14.060Z,16.96
2016-06-19T06:10:14.110Z,17
2016-06-19T06:11:14.161Z,17.06
2016-06-19T06:12:14.900Z,16.98
2016-06-19T06:13:14.231Z,17.06
2016-06-19T06:14:14.282Z,17.07
2016-06-19T06:15:14.347Z,17.13
2016-06-19T06:16:14.350Z,17.22
2016-06-19T06:17:14.401Z,17.23
2016-06-19T06:18:14.466Z,17.29
2016-06-19T06:19:14.485Z,17.33
2016-06-19T06:20:14.520Z,17.43
2016-06-19T06:21:14.570Z,17.38
2016-06-19T06:22:14.652Z,17.47
2016-06-19T06:23:14.655Z,17.53
2016-06-19T06:24:14.706Z,17.48
2016-06-19T06:25:14.726Z,17.54
2016-06-19T06:26:14.806Z,17.57
2016-06-19T06:27:14.826Z,17.69
2016-06-19T06:28:14.914Z,17.67
2016-06-19T06:29:14.923Z,17.71
2016-06-19T06:30:15.011Z,17.82
2016-06-19T06:31:15.020Z,17.82
2016-06-19T06:32:15.059Z,17.94
2016-06-19T06:33:15.128Z,17.99
2016-06-19T06:34:15.165Z,18.1
2016-06-19T06:35:15.186Z,18.18
2016-06-19T06:36:15.255Z,18.29
2016-06-19T06:37:15.276Z,18.36
2016-06-19T06:38:15.326Z,18.34
2016-06-19T06:39:15.363Z,18.42
2016-06-19T06:40:15.414Z,18.47
2016-06-19T06:41:15.449Z,18.47
2016-06-19T06:42:15.532Z,18.54
2016-06-19T06:43:15.534Z,18.58
2016-06-19T06:44:15.585Z,18.64
2016-06-19T06:45:15.635Z,18.58
2016-06-19T06:46:15.655Z,18.64
2016-06-19T06:47:15.721Z,18.68
2016-06-19T06:48:15.755Z,18.7
2016-06-19T06:49:15.790Z,18.84
2016-06-19T06:50:15.840Z,18.9
2016-06-19T06:51:15.890Z,18.83
2016-06-19T06:52:15.941Z,18.94
2016-06-19T06:53:15.960Z,18.98
2016-06-19T06:54:16.010Z,18.86
2016-06-19T06:55:16.060Z,18.84
2016-06-19T06:56:16.096Z,18.8
2016-06-19T06:57:16.130Z,18.86
2016-06-19T06:58:16.228Z,18.82
2016-06-19T06:59:16.231Z,18.8
2016-06-19T07:00:16.266Z,18.82
2016-06-19T07:01:16.300Z,18.7
2016-06-19T07:02:16.350Z,18.84
2016-06-19T07:03:16.401Z,18.76
2016-06-19T07:04:16.435Z,18.74
2016-06-19T07:05:16.502Z,18.67
2016-06-19T07:06:16.536Z,18.74
2016-06-19T07:07:16.555Z,18.74
2016-06-19T07:08:16.606Z,18.74
2016-06-19T07:09:16.655Z,18.84
2016-06-19T07:10:16.690Z,18.68
2016-06-19T07:11:16.740Z,18.8
2016-06-19T07:12:16.776Z,18.92
2016-06-19T07:13:16.842Z,18.92
2016-06-19T07:14:16.876Z,18.98
2016-06-19T07:15:16.911Z,19.02
2016-06-19T07:16:16.945Z,19.08
2016-06-19T07:17:16.980Z,19.1
2016-06-19T07:18:17.047Z,19.11
2016-06-19T07:19:17.081Z,19.06
2016-06-19T07:20:17.116Z,19.08
2016-06-19T07:21:17.198Z,19.05
2016-06-19T07:22:17.216Z,19.11
2016-06-19T07:23:17.251Z,19.23
2016-06-19T07:24:17.301Z,19.32
2016-06-19T07:25:17.367Z,19.38
2016-06-19T07:26:17.386Z,19.46
2016-06-19T07:27:17.421Z,19.54
2016-06-19T07:28:17.519Z,19.61
2016-06-19T07:29:17.521Z,19.66
2016-06-19T07:30:17.556Z,19.68
2016-06-19T07:31:17.592Z,19.65
2016-06-19T07:32:17.657Z,19.48
2016-06-19T07:33:17.692Z,19.5
2016-06-19T07:34:17.711Z,19.4
2016-06-19T07:35:17.762Z,19.47
2016-06-19T07:36:17.827Z,19.46
2016-06-19T07:37:17.846Z,19.43
2016-06-19T07:38:17.897Z,19.29
2016-06-19T07:39:17.947Z,19.24
2016-06-19T07:40:17.982Z,19.31
2016-06-19T07:41:18.032Z,19.18
2016-06-19T07:42:18.067Z,19.28
2016-06-19T07:43:18.148Z,19.25
2016-06-19T07:44:18.167Z,19.17
2016-06-19T07:45:18.202Z,19.08
2016-06-19T07:46:18.237Z,19.1
2016-06-19T07:47:18.928Z,19.1
2016-06-19T07:48:18.354Z,19.11
2016-06-19T07:49:18.372Z,19.21
2016-06-19T07:50:18.407Z,19.17
2016-06-19T07:51:18.456Z,19.14
2016-06-19T07:52:18.523Z,19.2
2016-06-19T07:53:18.543Z,19.25
2016-06-19T07:54:18.577Z,19.29
2016-06-19T07:55:18.643Z,19.33
2016-06-19T07:56:18.678Z,19.28
2016-06-19T07:57:18.713Z,19.39
2016-06-19T07:58:18.747Z,19.4
2016-06-19T07:59:18.798Z,19.54
2016-06-19T08:00:18.848Z,19.61
2016-06-19T08:01:18.866Z,19.68
2016-06-19T08:02:18.933Z,19.69
2016-06-19T08:03:18.967Z,19.76
2016-06-19T08:04:19.002Z,19.84
2016-06-19T08:05:19.068Z,19.9
2016-06-19T08:06:19.119Z,19.88
2016-06-19T08:07:19.170Z,19.95
2016-06-19T08:08:19.187Z,19.94
2016-06-19T08:09:19.224Z,20.02
2016-06-19T08:10:19.304Z,20.15
2016-06-19T08:11:19.464Z,20.23
2016-06-19T08:12:19.358Z,20.25
2016-06-19T08:13:19.455Z,20.25
2016-06-19T08:14:19.444Z,20.31
2016-06-19T08:15:19.509Z,20.31
2016-06-19T08:16:19.529Z,20.42
2016-06-19T08:17:19.578Z,20.51
2016-06-19T08:18:19.629Z,20.58
2016-06-19T08:19:19.664Z,20.69
2016-06-19T08:20:19.714Z,20.71
2016-06-19T08:21:19.749Z,20.79
2016-06-19T08:22:19.799Z,20.86
2016-06-19T08:23:19.850Z,20.84
2016-06-19T08:24:19.884Z,20.83
2016-06-19T08:25:19.996Z,20.83
2016-06-19T08:26:19.969Z,20.79
2016-06-19T08:27:20.081Z,20.86
2016-06-19T08:28:20.070Z,20.79
2016-06-19T08:29:20.104Z,20.84
2016-06-19T08:30:20.155Z,20.84
2016-06-19T08:31:20.189Z,20.87
2016-06-19T08:32:20.224Z,20.9
2016-06-19T08:33:20.306Z,20.95
2016-06-19T08:34:20.325Z,20.99
2016-06-19T08:35:20.359Z,21.2
2016-06-19T08:36:20.425Z,21.24
2016-06-19T08:37:20.476Z,21.39
2016-06-19T08:38:20.526Z,21.41
2016-06-19T08:39:20.545Z,21.53
2016-06-19T08:40:20.612Z,21.53
2016-06-19T08:41:20.677Z,21.5
2016-06-19T08:42:20.696Z,21.45
2016-06-19T08:43:20.730Z,21.48
2016-06-19T08:44:20.767Z,21.38
2016-06-19T08:45:20.821Z,21.41
2016-06-19T08:46:20.859Z,21.53
2016-06-19T08:47:20.911Z,21.48
2016-06-19T08:48:20.980Z,21.57
2016-06-19T08:49:21.016Z,21.63
2016-06-19T08:50:21.051Z,21.57
2016-06-19T08:51:21.135Z,21.61
2016-06-19T08:52:21.170Z,21.69
2016-06-19T08:53:21.206Z,21.69
2016-06-19T08:54:21.226Z,21.71
2016-06-19T08:55:21.292Z,21.66
2016-06-19T08:56:21.374Z,21.59
2016-06-19T08:57:21.362Z,21.46
2016-06-19T08:58:21.429Z,21.44
2016-06-19T08:59:21.448Z,21.45
2016-06-19T09:00:21.499Z,21.48
2016-06-19T09:01:21.564Z,21.51
2016-06-19T09:02:21.584Z,21.61
2016-06-19T09:03:21.681Z,21.64
2016-06-19T09:04:21.699Z,21.72
2016-06-19T09:05:21.719Z,21.83
2016-06-19T09:06:21.769Z,22.09
2016-06-19T09:07:21.820Z,22.12
2016-06-19T09:08:21.869Z,22.23
2016-06-19T09:09:21.905Z,22.22
2016-06-19T09:10:21.970Z,22.12
2016-06-19T09:11:21.989Z,21.99
2016-06-19T09:12:22.071Z,21.91
2016-06-19T09:13:22.074Z,21.83
2016-06-19T09:14:22.125Z,21.81
2016-06-19T09:15:22.175Z,21.76
2016-06-19T09:16:22.210Z,21.83
2016-06-19T09:17:22.261Z,21.76
2016-06-19T09:18:22.295Z,21.81
2016-06-19T09:19:22.377Z,21.83
2016-06-19T09:20:22.411Z,21.98
2016-06-19T09:21:22.462Z,22.07
2016-06-19T09:22:22.480Z,22.09
2016-06-19T09:23:22.531Z,22.19
2016-06-19T09:24:22.612Z,22.22
2016-06-19T09:25:22.616Z,22.27
2016-06-19T09:26:22.667Z,22.23
2016-06-19T09:27:22.701Z,22.39
2016-06-19T09:28:22.752Z,22.41
2016-06-19T09:29:22.785Z,22.39
2016-06-19T09:30:22.852Z,22.31
2016-06-19T09:31:22.949Z,22.5
2016-06-19T09:32:22.922Z,22.59
2016-06-19T09:33:22.972Z,22.59
2016-06-19T09:34:23.054Z,22.59
2016-06-19T09:35:23.087Z,22.64
2016-06-19T09:36:23.107Z,22.78
2016-06-19T09:37:23.157Z,22.68
2016-06-19T09:38:23.208Z,22.74
2016-06-19T09:39:23.243Z,22.62
2016-06-19T09:40:23.292Z,22.6
2016-06-19T09:41:23.343Z,22.67
2016-06-19T09:42:23.409Z,22.54
2016-06-19T09:43:24.084Z,22.57
2016-06-19T09:44:23.479Z,22.56
2016-06-19T09:45:23.529Z,22.5
2016-06-19T09:46:23.580Z,22.59
2016-06-19T09:47:23.645Z,22.62
2016-06-19T09:48:23.664Z,22.67
2016-06-19T09:49:23.699Z,22.89
2016-06-19T09:50:23.749Z,23.09
2016-06-19T09:51:23.800Z,23.23
2016-06-19T09:52:23.835Z,23.42
2016-06-19T09:53:23.885Z,23.52
2016-06-19T09:54:23.966Z,23.55
2016-06-19T09:55:23.986Z,23.65
2016-06-19T09:56:24.035Z,23.7
2016-06-19T09:57:24.055Z,23.67
2016-06-19T09:58:24.152Z,23.6
2016-06-19T09:59:24.156Z,23.6
2016-06-19T10:00:24.393Z,23.55
2016-06-19T10:01:24.287Z,23.52
2016-06-19T10:02:24.353Z,23.49
2016-06-19T10:03:24.529Z,23.46
2016-06-19T10:04:24.392Z,23.4
2016-06-19T10:05:24.473Z,23.4
2016-06-19T10:06:24.524Z,23.4
2016-06-19T10:07:24.542Z,23.47
2016-06-19T10:08:24.562Z,23.47
2016-06-19T10:09:25.268Z,23.49
2016-06-19T10:10:24.663Z,23.52
2016-06-19T10:11:24.712Z,23.53
2016-06-19T10:12:24.778Z,23.57
2016-06-19T10:13:24.798Z,23.58
2016-06-19T10:14:24.832Z,23.62
2016-06-19T10:15:24.898Z,23.62
2016-06-19T10:16:24.933Z,23.7
2016-06-19T10:17:25.030Z,23.72
2016-06-19T10:18:25.033Z,23.61
2016-06-19T10:19:25.069Z,23.61
2016-06-19T10:20:25.134Z,23.67
2016-06-19T10:21:25.169Z,23.7
2016-06-19T10:22:25.219Z,23.64
2016-06-19T10:23:25.270Z,23.75
2016-06-19T10:24:25.945Z,23.68
2016-06-19T10:25:25.354Z,23.75
2016-06-19T10:26:25.389Z,23.9
2016-06-19T10:27:25.455Z,23.83
2016-06-19T10:28:25.568Z,23.82
2016-06-19T10:29:25.540Z,23.85
2016-06-19T10:30:25.575Z,23.89
2016-06-19T10:31:25.657Z,23.9
2016-06-19T10:32:25.676Z,23.9
2016-06-19T10:33:25.727Z,23.89
2016-06-19T10:34:25.761Z,23.87
2016-06-19T10:35:25.811Z,23.89
2016-06-19T10:36:25.862Z,23.8
2016-06-19T10:37:25.896Z,23.83
2016-06-19T10:38:25.946Z,23.8
2016-06-19T10:39:25.997Z,23.92
2016-06-19T10:40:26.031Z,23.92
2016-06-19T10:41:26.082Z,24.01
2016-06-19T10:42:26.149Z,23.97
2016-06-19T10:43:26.183Z,24.02
2016-06-19T10:44:26.265Z,24.02
2016-06-19T10:45:26.314Z,24.07
2016-06-19T10:46:26.318Z,24.13
2016-06-19T10:47:26.368Z,24.22
2016-06-19T10:48:26.434Z,24.23
2016-06-19T10:49:26.469Z,24.37
2016-06-19T10:50:26.519Z,24.47
2016-06-19T10:51:26.555Z,24.56
2016-06-19T10:52:26.588Z,24.49
2016-06-19T10:53:26.671Z,24.41
2016-06-19T10:54:26.690Z,24.38
2016-06-19T10:55:26.724Z,24.26
2016-06-19T10:56:26.805Z,24.27
2016-06-19T10:57:26.856Z,24.22
2016-06-19T10:58:26.875Z,24.17
2016-06-19T10:59:26.910Z,24.19
2016-06-19T11:00:27.007Z,24.19
2016-06-19T11:01:27.669Z,24.2
2016-06-19T11:02:27.080Z,24.04
2016-06-19T11:03:27.147Z,24.02
2016-06-19T11:04:27.199Z,24.1
2016-06-19T11:05:27.203Z,24.16
2016-06-19T11:06:27.270Z,24.19
2016-06-19T11:07:27.336Z,24.22
2016-06-19T11:08:27.356Z,24.19
2016-06-19T11:09:27.391Z,24.42
2016-06-19T11:10:27.489Z,25.05
2016-06-19T11:11:27.493Z,26.18
2016-06-19T11:12:27.528Z,27.32
2016-06-19T11:13:27.594Z,28.58
2016-06-19T11:14:27.646Z,29.66
2016-06-19T11:15:27.711Z,30.71
2016-06-19T11:16:27.745Z,30.93
2016-06-19T11:17:27.796Z,31.15
2016-06-19T11:18:27.862Z,31.13
2016-06-19T11:19:27.897Z,30.87
2016-06-19T11:20:27.947Z,30.78
2016-06-19T11:21:28.029Z,31.12
2016-06-19T11:22:28.048Z,31.2
2016-06-19T11:23:28.098Z,31.53
2016-06-19T11:24:28.148Z,32.18
2016-06-19T11:25:28.214Z,33.22
2016-06-19T11:26:28.265Z,34
2016-06-19T11:27:28.316Z,34.76
2016-06-19T11:28:28.365Z,35.44
2016-06-19T11:29:28.447Z,36.01
2016-06-19T11:30:28.482Z,36.49
2016-06-19T11:31:28.563Z,36.83
2016-06-19T11:32:28.598Z,37.43
2016-06-19T11:33:28.648Z,38.04
2016-06-19T11:34:28.714Z,38.68
2016-06-19T11:35:28.796Z,39.28
2016-06-19T11:36:28.814Z,39.86
2016-06-19T11:37:28.865Z,40.26
2016-06-19T11:38:28.946Z,40.21
2016-06-19T11:39:29.028Z,39.67
2016-06-19T11:40:29.047Z,39.33
2016-06-19T11:41:29.144Z,39.25
2016-06-19T11:42:29.164Z,38.79
2016-06-19T11:43:29.246Z,38.24
2016-06-19T11:44:29.295Z,37.54
2016-06-19T11:45:29.362Z,36.79
2016-06-19T11:46:29.412Z,36.54
2016-06-19T11:47:29.478Z,36.72
2016-06-19T11:48:29.528Z,37.19
2016-06-19T11:49:29.594Z,37.83
2016-06-19T11:50:29.645Z,38.39
2016-06-19T11:51:29.694Z,38.9
2016-06-19T11:52:29.744Z,39.39
2016-06-19T11:53:29.874Z,39.88
2016-06-19T11:54:30.127Z,39.78
2016-06-19T11:55:29.944Z,39.28
2016-06-19T11:56:30.009Z,38.58
2016-06-19T11:57:30.060Z,38.49
2016-06-19T11:58:30.140Z,38.73
2016-06-19T11:59:30.176Z,39.21
2016-06-19T12:00:30.273Z,39.74
2016-06-19T12:01:30.323Z,40.14
2016-06-19T12:02:30.357Z,40.46
2016-06-19T12:03:30.455Z,40.29
2016-06-19T12:04:30.490Z,39.73
2016-06-19T12:05:30.540Z,39.05
2016-06-19T12:06:30.606Z,38.45
2016-06-19T12:07:30.704Z,37.59
2016-06-19T12:08:30.739Z,36.99
2016-06-19T12:09:30.772Z,36.76
2016-06-19T12:10:30.870Z,36.54
2016-06-19T12:11:30.920Z,36.49
2016-06-19T12:12:30.956Z,36.43
2016-06-19T12:13:31.037Z,36.38
2016-06-19T12:14:31.087Z,36.57
2016-06-19T12:15:31.152Z,36.65
2016-06-19T12:16:31.188Z,37.09
2016-06-19T12:17:31.269Z,37.56
2016-06-19T12:18:31.304Z,37.95
2016-06-19T12:19:31.385Z,38.32
2016-06-19T12:20:31.452Z,38.6
2016-06-19T12:21:31.534Z,39.02
2016-06-19T12:22:31.551Z,39.28
2016-06-19T12:23:31.602Z,39.54
2016-06-19T12:24:31.700Z,39.71
2016-06-19T12:25:31.734Z,39.98
2016-06-19T12:26:31.832Z,40.12
2016-06-19T12:27:32.491Z,40.04
2016-06-19T12:28:31.963Z,40.12
2016-06-19T12:29:31.983Z,40.05
2016-06-19T12:30:32.049Z,39.89
2016-06-19T12:31:32.114Z,39.73
2016-06-19T12:32:32.180Z,39.64
2016-06-19T12:33:32.200Z,39.62
2016-06-19T12:34:32.297Z,39.71
2016-06-19T12:35:32.331Z,39.76
2016-06-19T12:36:32.413Z,39.78
2016-06-19T12:37:32.447Z,40.08
2016-06-19T12:38:32.546Z,40.15
2016-06-19T12:39:32.579Z,39.99
2016-06-19T12:40:32.646Z,40.02
2016-06-19T12:41:32.712Z,39.99
2016-06-19T12:42:32.793Z,40
2016-06-19T12:43:32.844Z,40.12
2016-06-19T12:44:33.019Z,40.3
2016-06-19T12:45:32.976Z,40.47
2016-06-19T12:46:33.041Z,40.61
2016-06-19T12:47:33.076Z,40.75
2016-06-19T12:48:33.142Z,40.94
2016-06-19T12:49:33.224Z,41.09
2016-06-19T12:50:33.289Z,40.99
2016-06-19T12:51:33.324Z,40.71
2016-06-19T12:52:33.421Z,40.57
2016-06-19T12:53:33.472Z,40.36
2016-06-19T12:54:33.507Z,40.42
2016-06-19T12:55:33.588Z,40.43
2016-06-19T12:56:33.686Z,40.56